sensor_id;sensor_type;location;lat;lon;timestamp;P1;durP1;ratioP1;P2;durP2;ratioP2
31660;SDS011;18267;52.234;7.444;2023-04-24T00:00:34;1.40;;;1.27;;
31660;SDS011;18267;52.234;7.444;2023-04-24T00:02:59;1.60;;;1.50;;
31660;SDS011;18267;52.234;7.444;2023-04-24T00:05:25;1.33;;;1.23;;
31660;SDS011;18267;52.234;7.444;2023-04-24T00:07:51;4.60;;;1.48;;
31660;SDS011;18267;52.234;7.444;2023-04-24T00:10:17;1.40;;;1.30;;
31660;SDS011;18267;52.234;7.444;2023-04-24T00:12:43;1.10;;;1.00;;
31660;SDS011;18267;52.234;7.444;2023-04-24T00:15:09;2.95;;;1.10;;
31660;SDS011;18267;52.234;7.444;2023-04-24T00:17:35;1.20;;;1.10;;
31660;SDS011;18267;52.234;7.444;2023-04-24T00:20:01;4.85;;;1.25;;
31660;SDS011;18267;52.234;7.444;2023-04-24T00:22:30;1.38;;;1.27;;
31660;SDS011;18267;52.234;7.444;2023-04-24T00:24:56;1.15;;;1.05;;
31660;SDS011;18267;52.234;7.444;2023-04-24T00:27:23;5.90;;;1.25;;
31660;SDS011;18267;52.234;7.444;2023-04-24T00:29:49;1.05;;;0.90;;
31660;SDS011;18267;52.234;7.444;2023-04-24T00:32:15;2.47;;;1.23;;
31660;SDS011;18267;52.234;7.444;2023-04-24T00:34:41;2.55;;;1.20;;
31660;SDS011;18267;52.234;7.444;2023-04-24T00:37:06;1.23;;;1.00;;
31660;SDS011;18267;52.234;7.444;2023-04-24T00:39:32;1.52;;;1.25;;
31660;SDS011;18267;52.234;7.444;2023-04-24T00:41:58;2.38;;;1.45;;
31660;SDS011;18267;52.234;7.444;2023-04-24T00:44:24;3.05;;;1.48;;
31660;SDS011;18267;52.234;7.444;2023-04-24T00:46:49;1.52;;;1.33;;
31660;SDS011;18267;52.234;7.444;2023-04-24T00:49:19;2.13;;;1.35;;
31660;SDS011;18267;52.234;7.444;2023-04-24T00:51:45;3.92;;;1.38;;
31660;SDS011;18267;52.234;7.444;2023-04-24T00:54:12;2.55;;;1.45;;
31660;SDS011;18267;52.234;7.444;2023-04-24T00:56:38;1.15;;;1.05;;
31660;SDS011;18267;52.234;7.444;2023-04-24T00:59:05;1.52;;;1.42;;
31660;SDS011;18267;52.234;7.444;2023-04-24T01:01:31;1.30;;;1.20;;
31660;SDS011;18267;52.234;7.444;2023-04-24T01:03:58;1.20;;;1.10;;
31660;SDS011;18267;52.234;7.444;2023-04-24T01:06:26;2.85;;;1.40;;
31660;SDS011;18267;52.234;7.444;2023-04-24T01:08:53;2.42;;;1.33;;
31660;SDS011;18267;52.234;7.444;2023-04-24T01:11:19;1.60;;;1.50;;
31660;SDS011;18267;52.234;7.444;2023-04-24T01:13:47;1.40;;;1.13;;
31660;SDS011;18267;52.234;7.444;2023-04-24T01:16:13;1.98;;;1.60;;
31660;SDS011;18267;52.234;7.444;2023-04-24T01:18:40;5.10;;;1.38;;
31660;SDS011;18267;52.234;7.444;2023-04-24T01:21:06;2.05;;;1.23;;
31660;SDS011;18267;52.234;7.444;2023-04-24T01:23:34;2.00;;;1.23;;
31660;SDS011;18267;52.234;7.444;2023-04-24T01:26:00;2.60;;;1.42;;
31660;SDS011;18267;52.234;7.444;2023-04-24T01:28:26;5.22;;;1.48;;
31660;SDS011;18267;52.234;7.444;2023-04-24T01:30:52;1.38;;;1.20;;
31660;SDS011;18267;52.234;7.444;2023-04-24T01:33:18;1.90;;;1.60;;
31660;SDS011;18267;52.234;7.444;2023-04-24T01:35:46;6.05;;;1.50;;
31660;SDS011;18267;52.234;7.444;2023-04-24T01:38:12;1.63;;;1.52;;
31660;SDS011;18267;52.234;7.444;2023-04-24T01:40:37;2.08;;;1.65;;
31660;SDS011;18267;52.234;7.444;2023-04-24T01:43:03;1.48;;;1.38;;
31660;SDS011;18267;52.234;7.444;2023-04-24T01:45:29;2.95;;;1.80;;
31660;SDS011;18267;52.234;7.444;2023-04-24T01:47:54;2.10;;;1.90;;
31660;SDS011;18267;52.234;7.444;2023-04-24T01:50:20;2.28;;;1.88;;
31660;SDS011;18267;52.234;7.444;2023-04-24T01:52:46;2.17;;;1.70;;
31660;SDS011;18267;52.234;7.444;2023-04-24T01:55:11;2.08;;;1.80;;
31660;SDS011;18267;52.234;7.444;2023-04-24T01:57:37;2.58;;;2.03;;
31660;SDS011;18267;52.234;7.444;2023-04-24T02:00:03;3.13;;;2.15;;
31660;SDS011;18267;52.234;7.444;2023-04-24T02:02:31;8.18;;;1.80;;
31660;SDS011;18267;52.234;7.444;2023-04-24T02:04:57;3.03;;;2.22;;
31660;SDS011;18267;52.234;7.444;2023-04-24T02:07:22;2.90;;;2.22;;
31660;SDS011;18267;52.234;7.444;2023-04-24T02:09:48;3.17;;;2.03;;
31660;SDS011;18267;52.234;7.444;2023-04-24T02:12:14;3.58;;;2.20;;
31660;SDS011;18267;52.234;7.444;2023-04-24T02:14:40;2.17;;;1.98;;
31660;SDS011;18267;52.234;7.444;2023-04-24T02:17:08;3.20;;;2.50;;
31660;SDS011;18267;52.234;7.444;2023-04-24T02:19:34;4.18;;;2.17;;
31660;SDS011;18267;52.234;7.444;2023-04-24T02:22:00;4.60;;;2.20;;
31660;SDS011;18267;52.234;7.444;2023-04-24T02:24:25;3.08;;;2.10;;
31660;SDS011;18267;52.234;7.444;2023-04-24T02:26:51;2.33;;;2.13;;
31660;SDS011;18267;52.234;7.444;2023-04-24T02:29:16;2.20;;;2.00;;
31660;SDS011;18267;52.234;7.444;2023-04-24T02:31:42;4.20;;;1.95;;
31660;SDS011;18267;52.234;7.444;2023-04-24T02:34:08;2.35;;;2.13;;
31660;SDS011;18267;52.234;7.444;2023-04-24T02:36:35;2.63;;;2.05;;
31660;SDS011;18267;52.234;7.444;2023-04-24T02:39:01;6.88;;;2.83;;
31660;SDS011;18267;52.234;7.444;2023-04-24T02:41:26;3.08;;;2.17;;
31660;SDS011;18267;52.234;7.444;2023-04-24T02:43:57;4.05;;;2.50;;
31660;SDS011;18267;52.234;7.444;2023-04-24T02:46:23;3.58;;;2.95;;
31660;SDS011;18267;52.234;7.444;2023-04-24T02:48:49;3.05;;;2.42;;
31660;SDS011;18267;52.234;7.444;2023-04-24T02:51:15;5.38;;;2.40;;
31660;SDS011;18267;52.234;7.444;2023-04-24T02:53:40;4.35;;;2.97;;
31660;SDS011;18267;52.234;7.444;2023-04-24T02:56:06;3.97;;;2.83;;
31660;SDS011;18267;52.234;7.444;2023-04-24T02:58:31;6.75;;;2.72;;
31660;SDS011;18267;52.234;7.444;2023-04-24T03:00:57;7.05;;;3.50;;
31660;SDS011;18267;52.234;7.444;2023-04-24T03:03:22;5.22;;;3.58;;
31660;SDS011;18267;52.234;7.444;2023-04-24T03:05:48;5.10;;;3.65;;
31660;SDS011;18267;52.234;7.444;2023-04-24T03:08:15;4.90;;;4.32;;
31660;SDS011;18267;52.234;7.444;2023-04-24T03:10:41;7.25;;;4.18;;
31660;SDS011;18267;52.234;7.444;2023-04-24T03:13:06;6.20;;;3.92;;
31660;SDS011;18267;52.234;7.444;2023-04-24T03:15:32;8.75;;;4.57;;
31660;SDS011;18267;52.234;7.444;2023-04-24T03:17:57;5.68;;;4.65;;
31660;SDS011;18267;52.234;7.444;2023-04-24T03:20:24;8.80;;;4.57;;
31660;SDS011;18267;52.234;7.444;2023-04-24T03:22:49;7.43;;;4.65;;
31660;SDS011;18267;52.234;7.444;2023-04-24T03:25:15;6.28;;;4.68;;
31660;SDS011;18267;52.234;7.444;2023-04-24T03:27:40;7.60;;;4.35;;
31660;SDS011;18267;52.234;7.444;2023-04-24T03:30:06;6.30;;;4.78;;
31660;SDS011;18267;52.234;7.444;2023-04-24T03:32:32;7.55;;;4.70;;
31660;SDS011;18267;52.234;7.444;2023-04-24T03:34:58;7.13;;;5.03;;
31660;SDS011;18267;52.234;7.444;2023-04-24T03:37:23;9.18;;;5.53;;
31660;SDS011;18267;52.234;7.444;2023-04-24T03:39:49;8.73;;;5.10;;
31660;SDS011;18267;52.234;7.444;2023-04-24T03:42:15;7.05;;;4.32;;
31660;SDS011;18267;52.234;7.444;2023-04-24T03:44:40;14.57;;;4.80;;
31660;SDS011;18267;52.234;7.444;2023-04-24T03:47:06;8.70;;;5.53;;
31660;SDS011;18267;52.234;7.444;2023-04-24T03:49:33;6.13;;;4.50;;
31660;SDS011;18267;52.234;7.444;2023-04-24T03:51:58;7.32;;;4.93;;
31660;SDS011;18267;52.234;7.444;2023-04-24T03:54:24;8.00;;;5.05;;
31660;SDS011;18267;52.234;7.444;2023-04-24T03:56:49;7.90;;;5.07;;
31660;SDS011;18267;52.234;7.444;2023-04-24T03:59:15;8.52;;;6.18;;
31660;SDS011;18267;52.234;7.444;2023-04-24T04:01:40;9.65;;;5.85;;
31660;SDS011;18267;52.234;7.444;2023-04-24T04:04:06;12.27;;;6.05;;
31660;SDS011;18267;52.234;7.444;2023-04-24T04:06:32;11.85;;;6.53;;
31660;SDS011;18267;52.234;7.444;2023-04-24T04:08:58;16.20;;;6.72;;
31660;SDS011;18267;52.234;7.444;2023-04-24T04:11:24;13.55;;;6.43;;
31660;SDS011;18267;52.234;7.444;2023-04-24T04:13:50;14.25;;;6.15;;
31660;SDS011;18267;52.234;7.444;2023-04-24T04:16:15;11.75;;;6.57;;
31660;SDS011;18267;52.234;7.444;2023-04-24T04:18:44;11.05;;;6.53;;
31660;SDS011;18267;52.234;7.444;2023-04-24T04:21:10;17.85;;;6.20;;
31660;SDS011;18267;52.234;7.444;2023-04-24T04:23:36;12.35;;;6.20;;
31660;SDS011;18267;52.234;7.444;2023-04-24T04:26:02;13.20;;;6.70;;
31660;SDS011;18267;52.234;7.444;2023-04-24T04:28:28;11.63;;;7.07;;
31660;SDS011;18267;52.234;7.444;2023-04-24T04:30:55;11.35;;;6.53;;
31660;SDS011;18267;52.234;7.444;2023-04-24T04:33:22;9.02;;;6.30;;
31660;SDS011;18267;52.234;7.444;2023-04-24T04:35:48;14.38;;;7.13;;
31660;SDS011;18267;52.234;7.444;2023-04-24T04:38:14;18.27;;;7.10;;
31660;SDS011;18267;52.234;7.444;2023-04-24T04:40:41;9.88;;;6.60;;
31660;SDS011;18267;52.234;7.444;2023-04-24T04:43:07;12.63;;;7.07;;
31660;SDS011;18267;52.234;7.444;2023-04-24T04:45:33;12.43;;;7.07;;
31660;SDS011;18267;52.234;7.444;2023-04-24T04:47:59;11.32;;;6.70;;
31660;SDS011;18267;52.234;7.444;2023-04-24T04:50:25;13.90;;;7.68;;
31660;SDS011;18267;52.234;7.444;2023-04-24T04:52:52;15.30;;;8.32;;
31660;SDS011;18267;52.234;7.444;2023-04-24T04:55:17;16.08;;;6.88;;
31660;SDS011;18267;52.234;7.444;2023-04-24T04:57:44;14.18;;;7.43;;
31660;SDS011;18267;52.234;7.444;2023-04-24T05:00:10;11.10;;;6.80;;
31660;SDS011;18267;52.234;7.444;2023-04-24T05:02:37;10.27;;;7.20;;
31660;SDS011;18267;52.234;7.444;2023-04-24T05:05:02;7.18;;;6.07;;
31660;SDS011;18267;52.234;7.444;2023-04-24T05:07:28;12.00;;;6.93;;
31660;SDS011;18267;52.234;7.444;2023-04-24T05:09:54;11.18;;;6.93;;
31660;SDS011;18267;52.234;7.444;2023-04-24T05:12:20;12.98;;;7.43;;
31660;SDS011;18267;52.234;7.444;2023-04-24T05:14:47;14.55;;;7.63;;
31660;SDS011;18267;52.234;7.444;2023-04-24T05:17:13;13.13;;;8.35;;
31660;SDS011;18267;52.234;7.444;2023-04-24T05:19:38;14.45;;;7.35;;
31660;SDS011;18267;52.234;7.444;2023-04-24T05:22:04;15.00;;;8.35;;
31660;SDS011;18267;52.234;7.444;2023-04-24T05:24:32;13.27;;;7.45;;
31660;SDS011;18267;52.234;7.444;2023-04-24T05:26:58;13.50;;;7.93;;
31660;SDS011;18267;52.234;7.444;2023-04-24T05:29:24;11.00;;;7.68;;
31660;SDS011;18267;52.234;7.444;2023-04-24T05:31:51;11.98;;;7.70;;
31660;SDS011;18267;52.234;7.444;2023-04-24T05:34:17;16.77;;;8.00;;
31660;SDS011;18267;52.234;7.444;2023-04-24T05:36:42;16.35;;;8.10;;
31660;SDS011;18267;52.234;7.444;2023-04-24T05:39:08;13.70;;;8.10;;
31660;SDS011;18267;52.234;7.444;2023-04-24T05:41:34;12.63;;;8.32;;
31660;SDS011;18267;52.234;7.444;2023-04-24T05:44:00;12.38;;;7.45;;
31660;SDS011;18267;52.234;7.444;2023-04-24T05:46:25;15.40;;;8.05;;
31660;SDS011;18267;52.234;7.444;2023-04-24T05:48:51;16.73;;;8.45;;
31660;SDS011;18267;52.234;7.444;2023-04-24T05:51:16;14.50;;;7.80;;
31660;SDS011;18267;52.234;7.444;2023-04-24T05:53:42;15.35;;;8.13;;
31660;SDS011;18267;52.234;7.444;2023-04-24T05:56:07;11.10;;;8.13;;
31660;SDS011;18267;52.234;7.444;2023-04-24T05:58:33;20.88;;;9.27;;
31660;SDS011;18267;52.234;7.444;2023-04-24T06:00:59;12.27;;;8.15;;
31660;SDS011;18267;52.234;7.444;2023-04-24T06:03:26;17.63;;;8.32;;
31660;SDS011;18267;52.234;7.444;2023-04-24T06:05:52;13.40;;;8.23;;
31660;SDS011;18267;52.234;7.444;2023-04-24T06:08:20;13.10;;;8.38;;
31660;SDS011;18267;52.234;7.444;2023-04-24T06:10:45;14.48;;;8.68;;
31660;SDS011;18267;52.234;7.444;2023-04-24T06:13:11;13.25;;;7.95;;
31660;SDS011;18267;52.234;7.444;2023-04-24T06:15:37;11.95;;;7.45;;
31660;SDS011;18267;52.234;7.444;2023-04-24T06:18:03;13.30;;;7.93;;
31660;SDS011;18267;52.234;7.444;2023-04-24T06:20:28;20.83;;;8.02;;
31660;SDS011;18267;52.234;7.444;2023-04-24T06:22:54;13.18;;;7.80;;
31660;SDS011;18267;52.234;7.444;2023-04-24T06:25:26;16.65;;;8.32;;
31660;SDS011;18267;52.234;7.444;2023-04-24T06:27:52;14.68;;;7.90;;
31660;SDS011;18267;52.234;7.444;2023-04-24T06:30:17;17.58;;;8.15;;
31660;SDS011;18267;52.234;7.444;2023-04-24T06:32:44;12.18;;;7.68;;
31660;SDS011;18267;52.234;7.444;2023-04-24T06:35:10;15.50;;;8.18;;
31660;SDS011;18267;52.234;7.444;2023-04-24T06:37:37;15.10;;;7.90;;
31660;SDS011;18267;52.234;7.444;2023-04-24T06:40:04;13.35;;;7.82;;
31660;SDS011;18267;52.234;7.444;2023-04-24T06:42:30;15.35;;;8.00;;
31660;SDS011;18267;52.234;7.444;2023-04-24T06:44:56;9.00;;;6.85;;
31660;SDS011;18267;52.234;7.444;2023-04-24T06:47:21;14.30;;;7.55;;
31660;SDS011;18267;52.234;7.444;2023-04-24T06:49:47;12.73;;;7.05;;
31660;SDS011;18267;52.234;7.444;2023-04-24T06:52:13;11.93;;;6.68;;
31660;SDS011;18267;52.234;7.444;2023-04-24T06:54:38;13.65;;;7.05;;
31660;SDS011;18267;52.234;7.444;2023-04-24T06:57:04;13.25;;;7.03;;
31660;SDS011;18267;52.234;7.444;2023-04-24T06:59:29;12.07;;;6.65;;
31660;SDS011;18267;52.234;7.444;2023-04-24T07:01:56;14.57;;;6.82;;
31660;SDS011;18267;52.234;7.444;2023-04-24T07:04:22;14.65;;;7.38;;
31660;SDS011;18267;52.234;7.444;2023-04-24T07:06:49;16.17;;;7.07;;
31660;SDS011;18267;52.234;7.444;2023-04-24T07:09:16;9.55;;;6.00;;
31660;SDS011;18267;52.234;7.444;2023-04-24T07:11:43;11.52;;;6.38;;
31660;SDS011;18267;52.234;7.444;2023-04-24T07:14:09;10.82;;;6.47;;
31660;SDS011;18267;52.234;7.444;2023-04-24T07:16:35;7.00;;;5.38;;
31660;SDS011;18267;52.234;7.444;2023-04-24T07:19:00;7.75;;;5.47;;
31660;SDS011;18267;52.234;7.444;2023-04-24T07:21:26;8.32;;;5.43;;
31660;SDS011;18267;52.234;7.444;2023-04-24T07:23:52;9.82;;;5.38;;
31660;SDS011;18267;52.234;7.444;2023-04-24T07:26:18;8.32;;;5.13;;
31660;SDS011;18267;52.234;7.444;2023-04-24T07:28:45;6.32;;;4.35;;
31660;SDS011;18267;52.234;7.444;2023-04-24T07:31:11;8.98;;;5.18;;
31660;SDS011;18267;52.234;7.444;2023-04-24T07:33:37;7.13;;;5.10;;
31660;SDS011;18267;52.234;7.444;2023-04-24T07:36:03;5.80;;;4.53;;
31660;SDS011;18267;52.234;7.444;2023-04-24T07:38:29;7.10;;;4.78;;
31660;SDS011;18267;52.234;7.444;2023-04-24T07:41:00;5.57;;;4.47;;
31660;SDS011;18267;52.234;7.444;2023-04-24T07:43:26;5.38;;;3.67;;
31660;SDS011;18267;52.234;7.444;2023-04-24T07:45:52;4.20;;;3.80;;
31660;SDS011;18267;52.234;7.444;2023-04-24T07:48:18;7.43;;;4.10;;
31660;SDS011;18267;52.234;7.444;2023-04-24T07:50:43;5.25;;;4.38;;
31660;SDS011;18267;52.234;7.444;2023-04-24T07:53:09;6.18;;;3.70;;
31660;SDS011;18267;52.234;7.444;2023-04-24T07:55:35;5.80;;;3.92;;
31660;SDS011;18267;52.234;7.444;2023-04-24T07:58:01;6.90;;;4.00;;
31660;SDS011;18267;52.234;7.444;2023-04-24T08:00:26;4.35;;;3.50;;
31660;SDS011;18267;52.234;7.444;2023-04-24T08:02:52;5.32;;;3.83;;
31660;SDS011;18267;52.234;7.444;2023-04-24T08:05:17;5.38;;;3.88;;
31660;SDS011;18267;52.234;7.444;2023-04-24T08:07:43;9.02;;;4.07;;
31660;SDS011;18267;52.234;7.444;2023-04-24T08:10:11;4.50;;;3.67;;
31660;SDS011;18267;52.234;7.444;2023-04-24T08:12:36;5.07;;;3.63;;
31660;SDS011;18267;52.234;7.444;2023-04-24T08:15:03;4.28;;;3.20;;
31660;SDS011;18267;52.234;7.444;2023-04-24T08:17:29;4.88;;;3.25;;
31660;SDS011;18267;52.234;7.444;2023-04-24T08:19:55;3.97;;;3.42;;
31660;SDS011;18267;52.234;7.444;2023-04-24T08:22:26;6.15;;;3.60;;
31660;SDS011;18267;52.234;7.444;2023-04-24T08:24:52;4.97;;;4.03;;
31660;SDS011;18267;52.234;7.444;2023-04-24T08:27:18;6.82;;;3.45;;
31660;SDS011;18267;52.234;7.444;2023-04-24T08:29:43;6.45;;;3.85;;
31660;SDS011;18267;52.234;7.444;2023-04-24T08:32:09;4.13;;;3.10;;
31660;SDS011;18267;52.234;7.444;2023-04-24T08:34:34;4.55;;;3.17;;
31660;SDS011;18267;52.234;7.444;2023-04-24T08:37:00;3.90;;;2.97;;
31660;SDS011;18267;52.234;7.444;2023-04-24T08:39:25;4.03;;;2.53;;
31660;SDS011;18267;52.234;7.444;2023-04-24T08:41:51;11.48;;;3.78;;
31660;SDS011;18267;52.234;7.444;2023-04-24T08:44:18;3.25;;;2.80;;
31660;SDS011;18267;52.234;7.444;2023-04-24T08:46:45;4.05;;;3.47;;
31660;SDS011;18267;52.234;7.444;2023-04-24T08:49:13;4.03;;;3.22;;
31660;SDS011;18267;52.234;7.444;2023-04-24T08:51:43;5.85;;;2.92;;
31660;SDS011;18267;52.234;7.444;2023-04-24T08:54:10;2.88;;;2.67;;
31660;SDS011;18267;52.234;7.444;2023-04-24T08:56:37;5.38;;;3.58;;
31660;SDS011;18267;52.234;7.444;2023-04-24T08:59:05;5.18;;;3.75;;
31660;SDS011;18267;52.234;7.444;2023-04-24T09:01:32;4.38;;;3.17;;
31660;SDS011;18267;52.234;7.444;2023-04-24T09:04:04;5.38;;;3.47;;
31660;SDS011;18267;52.234;7.444;2023-04-24T09:06:32;5.38;;;3.10;;
31660;SDS011;18267;52.234;7.444;2023-04-24T09:09:00;7.68;;;3.85;;
31660;SDS011;18267;52.234;7.444;2023-04-24T09:11:26;5.97;;;3.00;;
31660;SDS011;18267;52.234;7.444;2023-04-24T09:13:55;11.02;;;3.38;;
31660;SDS011;18267;52.234;7.444;2023-04-24T09:16:21;5.30;;;3.25;;
31660;SDS011;18267;52.234;7.444;2023-04-24T09:18:49;4.65;;;3.45;;
31660;SDS011;18267;52.234;7.444;2023-04-24T09:21:15;4.00;;;3.15;;
31660;SDS011;18267;52.234;7.444;2023-04-24T09:23:41;5.00;;;3.10;;
31660;SDS011;18267;52.234;7.444;2023-04-24T09:26:15;5.43;;;3.35;;
31660;SDS011;18267;52.234;7.444;2023-04-24T09:28:41;3.63;;;3.20;;
31660;SDS011;18267;52.234;7.444;2023-04-24T09:31:14;5.88;;;3.00;;
31660;SDS011;18267;52.234;7.444;2023-04-24T09:34:02;2.88;;;2.58;;
31660;SDS011;18267;52.234;7.444;2023-04-24T09:36:34;5.47;;;2.90;;
31660;SDS011;18267;52.234;7.444;2023-04-24T09:39:05;3.00;;;2.38;;
31660;SDS011;18267;52.234;7.444;2023-04-24T09:41:49;4.10;;;3.08;;
31660;SDS011;18267;52.234;7.444;2023-04-24T09:44:21;4.63;;;2.90;;
31660;SDS011;18267;52.234;7.444;2023-04-24T09:46:49;3.35;;;2.08;;
31660;SDS011;18267;52.234;7.444;2023-04-24T09:49:25;2.33;;;1.88;;
31660;SDS011;18267;52.234;7.444;2023-04-24T09:52:06;4.28;;;2.58;;
31660;SDS011;18267;52.234;7.444;2023-04-24T09:54:34;2.10;;;1.90;;
31660;SDS011;18267;52.234;7.444;2023-04-24T09:57:01;4.55;;;1.85;;
31660;SDS011;18267;52.234;7.444;2023-04-24T09:59:27;3.08;;;1.58;;
31660;SDS011;18267;52.234;7.444;2023-04-24T10:01:55;2.08;;;1.42;;
31660;SDS011;18267;52.234;7.444;2023-04-24T10:04:29;2.38;;;1.60;;
31660;SDS011;18267;52.234;7.444;2023-04-24T10:07:06;1.85;;;1.27;;
31660;SDS011;18267;52.234;7.444;2023-04-24T10:09:39;5.57;;;1.27;;
31660;SDS011;18267;52.234;7.444;2023-04-24T10:12:13;2.17;;;1.27;;
31660;SDS011;18267;52.234;7.444;2023-04-24T10:14:45;1.92;;;1.30;;
31660;SDS011;18267;52.234;7.444;2023-04-24T10:17:14;1.35;;;1.00;;
31660;SDS011;18267;52.234;7.444;2023-04-24T10:19:42;2.20;;;1.10;;
31660;SDS011;18267;52.234;7.444;2023-04-24T10:22:19;1.50;;;1.23;;
31660;SDS011;18267;52.234;7.444;2023-04-24T10:24:47;2.60;;;1.33;;
31660;SDS011;18267;52.234;7.444;2023-04-24T10:27:15;1.48;;;1.38;;
31660;SDS011;18267;52.234;7.444;2023-04-24T10:29:45;2.28;;;1.30;;
31660;SDS011;18267;52.234;7.444;2023-04-24T10:32:13;2.05;;;1.85;;
31660;SDS011;18267;52.234;7.444;2023-04-24T10:34:40;3.08;;;2.50;;
31660;SDS011;18267;52.234;7.444;2023-04-24T10:37:07;4.50;;;3.25;;
31660;SDS011;18267;52.234;7.444;2023-04-24T10:39:35;5.30;;;4.00;;
31660;SDS011;18267;52.234;7.444;2023-04-24T10:42:15;7.60;;;4.55;;
31660;SDS011;18267;52.234;7.444;2023-04-24T10:44:51;6.03;;;4.43;;
31660;SDS011;18267;52.234;7.444;2023-04-24T10:47:20;9.27;;;4.82;;
31660;SDS011;18267;52.234;7.444;2023-04-24T10:49:46;5.70;;;4.22;;
31660;SDS011;18267;52.234;7.444;2023-04-24T10:52:16;8.27;;;4.90;;
31660;SDS011;18267;52.234;7.444;2023-04-24T10:54:46;10.30;;;5.18;;
31660;SDS011;18267;52.234;7.444;2023-04-24T10:57:26;9.32;;;4.97;;
31660;SDS011;18267;52.234;7.444;2023-04-24T11:00:12;9.20;;;4.22;;
31660;SDS011;18267;52.234;7.444;2023-04-24T11:02:48;8.50;;;4.22;;
31660;SDS011;18267;52.234;7.444;2023-04-24T11:05:16;7.22;;;3.75;;
31660;SDS011;18267;52.234;7.444;2023-04-24T11:10:40;9.55;;;4.32;;
31660;SDS011;18267;52.234;7.444;2023-04-24T11:13:21;7.78;;;3.97;;
31660;SDS011;18267;52.234;7.444;2023-04-24T11:21:47;6.53;;;3.97;;
31660;SDS011;18267;52.234;7.444;2023-04-24T11:24:26;5.72;;;3.50;;
31660;SDS011;18267;52.234;7.444;2023-04-24T11:27:21;9.40;;;3.90;;
31660;SDS011;18267;52.234;7.444;2023-04-24T11:29:59;8.57;;;3.90;;
31660;SDS011;18267;52.234;7.444;2023-04-24T11:35:17;4.75;;;3.70;;
31660;SDS011;18267;52.234;7.444;2023-04-24T11:37:50;4.63;;;3.50;;
31660;SDS011;18267;52.234;7.444;2023-04-24T11:40:18;6.28;;;3.67;;
31660;SDS011;18267;52.234;7.444;2023-04-24T11:42:55;5.70;;;3.72;;
31660;SDS011;18267;52.234;7.444;2023-04-24T11:45:24;4.80;;;3.47;;
31660;SDS011;18267;52.234;7.444;2023-04-24T11:47:54;5.18;;;2.75;;
31660;SDS011;18267;52.234;7.444;2023-04-24T11:50:26;4.43;;;2.40;;
31660;SDS011;18267;52.234;7.444;2023-04-24T11:52:55;3.22;;;1.52;;
31660;SDS011;18267;52.234;7.444;2023-04-24T11:55:26;2.67;;;1.70;;
31660;SDS011;18267;52.234;7.444;2023-04-24T11:57:54;4.88;;;1.27;;
31660;SDS011;18267;52.234;7.444;2023-04-24T12:00:26;2.97;;;1.60;;
31660;SDS011;18267;52.234;7.444;2023-04-24T12:03:07;5.82;;;1.80;;
31660;SDS011;18267;52.234;7.444;2023-04-24T12:05:33;5.22;;;1.77;;
31660;SDS011;18267;52.234;7.444;2023-04-24T12:08:28;3.30;;;1.67;;
31660;SDS011;18267;52.234;7.444;2023-04-24T12:10:53;8.88;;;2.08;;
31660;SDS011;18267;52.234;7.444;2023-04-24T12:13:20;5.20;;;1.77;;
31660;SDS011;18267;52.234;7.444;2023-04-24T12:15:47;6.63;;;1.55;;
31660;SDS011;18267;52.234;7.444;2023-04-24T12:18:22;7.72;;;1.52;;
31660;SDS011;18267;52.234;7.444;2023-04-24T12:20:48;3.13;;;1.20;;
31660;SDS011;18267;52.234;7.444;2023-04-24T12:23:14;3.95;;;2.15;;
31660;SDS011;18267;52.234;7.444;2023-04-24T12:25:42;2.58;;;1.50;;
31660;SDS011;18267;52.234;7.444;2023-04-24T12:28:11;5.07;;;1.63;;
31660;SDS011;18267;52.234;7.444;2023-04-24T12:30:41;3.97;;;1.75;;
31660;SDS011;18267;52.234;7.444;2023-04-24T12:33:21;2.38;;;1.45;;
31660;SDS011;18267;52.234;7.444;2023-04-24T12:35:53;4.70;;;1.90;;
31660;SDS011;18267;52.234;7.444;2023-04-24T12:38:21;5.18;;;1.58;;
31660;SDS011;18267;52.234;7.444;2023-04-24T12:41:03;5.63;;;1.83;;
31660;SDS011;18267;52.234;7.444;2023-04-24T12:43:36;5.18;;;1.73;;
31660;SDS011;18267;52.234;7.444;2023-04-24T12:46:04;3.60;;;1.90;;
31660;SDS011;18267;52.234;7.444;2023-04-24T12:48:30;5.13;;;1.63;;
31660;SDS011;18267;52.234;7.444;2023-04-24T12:50:58;9.93;;;1.73;;
31660;SDS011;18267;52.234;7.444;2023-04-24T12:53:26;8.85;;;1.70;;
31660;SDS011;18267;52.234;7.444;2023-04-24T12:55:53;3.42;;;1.95;;
31660;SDS011;18267;52.234;7.444;2023-04-24T12:58:20;19.13;;;1.73;;
31660;SDS011;18267;52.234;7.444;2023-04-24T13:00:47;4.00;;;1.60;;
31660;SDS011;18267;52.234;7.444;2023-04-24T13:03:13;10.98;;;1.88;;
31660;SDS011;18267;52.234;7.444;2023-04-24T13:05:51;3.70;;;1.70;;
31660;SDS011;18267;52.234;7.444;2023-04-24T13:08:19;4.93;;;1.60;;
31660;SDS011;18267;52.234;7.444;2023-04-24T13:10:47;5.15;;;1.70;;
31660;SDS011;18267;52.234;7.444;2023-04-24T13:13:19;6.35;;;1.50;;
31660;SDS011;18267;52.234;7.444;2023-04-24T13:15:55;3.47;;;1.42;;
31660;SDS011;18267;52.234;7.444;2023-04-24T13:18:21;5.18;;;1.50;;
31660;SDS011;18267;52.234;7.444;2023-04-24T13:21:08;8.43;;;1.40;;
31660;SDS011;18267;52.234;7.444;2023-04-24T13:23:36;7.07;;;1.35;;
31660;SDS011;18267;52.234;7.444;2023-04-24T13:26:15;3.60;;;1.38;;
31660;SDS011;18267;52.234;7.444;2023-04-24T13:28:43;3.58;;;1.27;;
31660;SDS011;18267;52.234;7.444;2023-04-24T13:31:23;4.47;;;1.70;;
31660;SDS011;18267;52.234;7.444;2023-04-24T13:34:00;5.05;;;1.77;;
31660;SDS011;18267;52.234;7.444;2023-04-24T13:36:38;4.85;;;1.70;;
31660;SDS011;18267;52.234;7.444;2023-04-24T13:39:05;5.45;;;1.88;;
31660;SDS011;18267;52.234;7.444;2023-04-24T13:41:42;5.22;;;1.65;;
31660;SDS011;18267;52.234;7.444;2023-04-24T13:44:17;3.13;;;1.52;;
31660;SDS011;18267;52.234;7.444;2023-04-24T13:46:47;4.20;;;1.52;;
31660;SDS011;18267;52.234;7.444;2023-04-24T13:49:18;5.32;;;1.95;;
31660;SDS011;18267;52.234;7.444;2023-04-24T13:51:57;12.48;;;1.65;;
31660;SDS011;18267;52.234;7.444;2023-04-24T13:54:24;7.85;;;1.98;;
31660;SDS011;18267;52.234;7.444;2023-04-24T13:56:51;3.38;;;1.63;;
31660;SDS011;18267;52.234;7.444;2023-04-24T13:59:22;9.65;;;1.50;;
31660;SDS011;18267;52.234;7.444;2023-04-24T14:01:47;6.75;;;1.45;;
31660;SDS011;18267;52.234;7.444;2023-04-24T14:04:13;2.28;;;1.13;;
31660;SDS011;18267;52.234;7.444;2023-04-24T14:06:39;5.75;;;1.27;;
31660;SDS011;18267;52.234;7.444;2023-04-24T14:09:06;5.60;;;1.40;;
31660;SDS011;18267;52.234;7.444;2023-04-24T14:11:34;5.13;;;1.30;;
31660;SDS011;18267;52.234;7.444;2023-04-24T14:14:00;6.45;;;1.48;;
31660;SDS011;18267;52.234;7.444;2023-04-24T14:16:26;3.45;;;1.90;;
31660;SDS011;18267;52.234;7.444;2023-04-24T14:18:54;1.75;;;1.27;;
31660;SDS011;18267;52.234;7.444;2023-04-24T14:21:19;3.67;;;1.40;;
31660;SDS011;18267;52.234;7.444;2023-04-24T14:24:08;2.20;;;1.20;;
31660;SDS011;18267;52.234;7.444;2023-04-24T14:26:34;7.50;;;1.63;;
31660;SDS011;18267;52.234;7.444;2023-04-24T14:29:00;3.40;;;1.48;;
31660;SDS011;18267;52.234;7.444;2023-04-24T14:31:26;4.68;;;1.60;;
31660;SDS011;18267;52.234;7.444;2023-04-24T14:33:52;2.90;;;1.95;;
31660;SDS011;18267;52.234;7.444;2023-04-24T14:36:19;3.15;;;2.13;;
31660;SDS011;18267;52.234;7.444;2023-04-24T14:38:45;7.03;;;3.47;;
31660;SDS011;18267;52.234;7.444;2023-04-24T14:41:38;3.17;;;1.42;;
31660;SDS011;18267;52.234;7.444;2023-04-24T14:44:16;1.85;;;1.17;;
31660;SDS011;18267;52.234;7.444;2023-04-24T14:46:45;5.07;;;1.38;;
31660;SDS011;18267;52.234;7.444;2023-04-24T14:49:12;3.10;;;1.35;;
31660;SDS011;18267;52.234;7.444;2023-04-24T14:51:45;5.38;;;2.70;;
31660;SDS011;18267;52.234;7.444;2023-04-24T14:54:11;3.80;;;1.83;;
31660;SDS011;18267;52.234;7.444;2023-04-24T14:56:37;3.28;;;1.30;;
31660;SDS011;18267;52.234;7.444;2023-04-24T14:59:05;1.40;;;1.08;;
31660;SDS011;18267;52.234;7.444;2023-04-24T15:01:31;4.00;;;1.10;;